createdAt,value
2023-04-12T00:00:53.040Z,23.01
2023-04-12T00:03:21.035Z,23.03
2023-04-12T00:05:54.525Z,23.03
2023-04-12T00:08:26.357Z,23.03
2023-04-12T00:10:53.059Z,23.04
2023-04-12T00:13:19.748Z,23.03
2023-04-12T00:15:46.432Z,23.03
2023-04-12T00:18:13.041Z,23.03
2023-04-12T00:20:39.548Z,23.03
2023-04-12T00:23:06.770Z,23.02
2023-04-12T00:25:33.456Z,23.03
2023-04-12T00:27:59.920Z,23.02
2023-04-12T00:30:26.511Z,23.03
2023-04-12T00:32:53.080Z,23.02
2023-04-12T00:35:19.632Z,23.02
2023-04-12T00:37:46.811Z,23.02
2023-04-12T00:40:13.518Z,23.02
2023-04-12T00:42:40.162Z,23.01
2023-04-12T00:45:07.200Z,23.02
2023-04-12T00:47:37.877Z,23.03
2023-04-12T00:50:06.153Z,23.02
2023-04-12T00:52:34.383Z,23.02
2023-04-12T00:55:05.077Z,23.01
2023-04-12T00:57:36.616Z,23.02
2023-04-12T01:00:08.746Z,23.02
2023-04-12T01:02:35.904Z,23.01
2023-04-12T01:05:03.054Z,23.01
2023-04-12T01:07:54.195Z,23.01
2023-04-12T01:10:42.761Z,23.00
2023-04-12T01:13:22.245Z,22.99
2023-04-12T01:16:00.011Z,22.98
2023-04-12T01:18:30.583Z,22.98
2023-04-12T01:21:03.843Z,22.99
2023-04-12T01:23:45.433Z,22.99
2023-04-12T01:26:21.978Z,22.99
2023-04-12T01:28:53.218Z,22.97
2023-04-12T01:31:21.480Z,22.98
2023-04-12T01:33:53.002Z,22.98
2023-04-12T01:36:22.704Z,22.98
2023-04-12T01:38:50.705Z,22.98
2023-04-12T01:41:18.018Z,22.97
2023-04-12T01:43:45.816Z,22.99
2023-04-12T01:46:14.786Z,22.98
2023-04-12T01:48:50.911Z,22.99
2023-04-12T01:51:32.585Z,22.98
2023-04-12T01:54:11.163Z,22.98
2023-04-12T01:56:41.484Z,22.98
2023-04-12T01:59:10.998Z,22.97
2023-04-12T02:01:37.790Z,22.96
2023-04-12T02:04:08.165Z,22.97
2023-04-12T02:06:34.996Z,22.97
2023-04-12T02:09:03.682Z,22.96
2023-04-12T02:11:30.199Z,22.97
2023-04-12T02:13:57.066Z,22.96
2023-04-12T02:16:24.078Z,22.97
2023-04-12T02:18:51.753Z,22.97
2023-04-12T02:21:19.046Z,22.97
2023-04-12T02:23:45.603Z,22.96
2023-04-12T02:26:12.326Z,22.97
2023-04-12T02:28:39.390Z,22.97
2023-04-12T02:31:09.126Z,22.96
2023-04-12T02:33:36.109Z,22.97
2023-04-12T02:36:10.440Z,22.96
2023-04-12T02:38:37.238Z,22.96
2023-04-12T02:41:06.378Z,22.96
2023-04-12T02:43:33.982Z,22.96
2023-04-12T02:46:04.285Z,22.96
2023-04-12T02:48:38.312Z,22.95
2023-04-12T02:51:05.646Z,22.96
2023-04-12T02:53:33.434Z,22.95
2023-04-12T02:56:19.314Z,22.91
2023-04-12T02:58:49.720Z,22.91
2023-04-12T03:01:26.116Z,22.91
2023-04-12T03:04:11.272Z,22.87
2023-04-12T03:06:52.567Z,22.88
2023-04-12T03:09:25.141Z,22.89
2023-04-12T03:11:53.779Z,22.89
2023-04-12T03:14:20.689Z,22.90
2023-04-12T03:16:49.063Z,22.90
2023-04-12T03:19:17.813Z,22.91
2023-04-12T03:21:51.132Z,22.91
2023-04-12T03:24:17.628Z,22.91
2023-04-12T03:26:44.155Z,22.92
2023-04-12T03:29:16.322Z,22.92
2023-04-12T03:31:44.332Z,22.92
2023-04-12T03:34:10.871Z,22.91
2023-04-12T03:36:41.989Z,22.91
2023-04-12T03:39:19.747Z,22.92
2023-04-12T03:41:50.714Z,22.91
2023-04-12T03:44:17.715Z,22.91
2023-04-12T03:46:44.770Z,22.92
2023-04-12T03:49:12.044Z,22.91
2023-04-12T03:51:42.887Z,22.91
2023-04-12T03:54:11.282Z,22.92
2023-04-12T03:56:58.337Z,22.90
2023-04-12T03:59:35.187Z,22.90
2023-04-12T04:02:01.948Z,22.89
2023-04-12T04:04:31.702Z,22.90
2023-04-12T04:07:02.626Z,22.90
2023-04-12T04:09:36.156Z,22.90
2023-04-12T04:12:03.884Z,22.89
2023-04-12T04:14:34.792Z,22.90
2023-04-12T04:17:02.836Z,22.90
2023-04-12T04:19:30.033Z,22.89
2023-04-12T04:21:56.803Z,22.88
2023-04-12T04:24:25.145Z,22.89
2023-04-12T04:26:54.489Z,22.89
2023-04-12T04:29:25.700Z,22.88
2023-04-12T04:31:53.832Z,22.89
2023-04-12T04:34:22.229Z,22.89
2023-04-12T04:36:51.831Z,22.88
2023-04-12T04:39:25.838Z,22.89
2023-04-12T04:41:54.741Z,22.88
2023-04-12T04:44:29.703Z,22.87
2023-04-12T04:46:59.144Z,22.87
2023-04-12T04:49:25.740Z,22.87
2023-04-12T04:52:01.101Z,22.86
2023-04-12T04:54:27.619Z,22.86
2023-04-12T04:56:54.198Z,22.85
2023-04-12T04:59:21.737Z,22.85
2023-04-12T05:01:48.517Z,22.85
2023-04-12T05:04:16.917Z,22.85
2023-04-12T05:06:43.625Z,22.85
2023-04-12T05:09:12.196Z,22.83
2023-04-12T05:11:46.292Z,22.84
2023-04-12T05:14:13.233Z,22.83
2023-04-12T05:16:40.520Z,22.84
2023-04-12T05:19:07.255Z,22.85
2023-04-12T05:21:34.414Z,22.83
2023-04-12T05:24:01.417Z,22.85
2023-04-12T05:26:28.942Z,22.85
2023-04-12T05:28:57.328Z,22.85
2023-04-12T05:31:24.771Z,22.85
2023-04-12T05:33:53.770Z,22.83
2023-04-12T05:36:23.803Z,22.85
2023-04-12T05:38:52.263Z,22.86
2023-04-12T05:41:18.899Z,22.85
2023-04-12T05:43:47.299Z,22.85
2023-04-12T05:46:14.534Z,22.85
2023-04-12T05:48:43.825Z,22.85
2023-04-12T05:51:10.872Z,22.86
2023-04-12T05:53:37.721Z,22.86
2023-04-12T05:56:06.952Z,22.85
2023-04-12T05:58:34.569Z,22.85
2023-04-12T06:01:01.204Z,22.85
2023-04-12T06:03:30.621Z,22.86
2023-04-12T06:06:02.575Z,22.87
2023-04-12T06:08:30.289Z,22.86
2023-04-12T06:10:56.963Z,22.85
2023-04-12T06:13:23.641Z,22.86
2023-04-12T06:15:50.334Z,22.86
2023-04-12T06:18:17.722Z,22.86
2023-04-12T06:20:45.331Z,22.87
2023-04-12T06:23:12.812Z,22.85
2023-04-12T06:25:39.625Z,22.85
2023-04-12T06:28:06.254Z,22.86
2023-04-12T06:30:40.695Z,22.86
2023-04-12T06:33:07.279Z,22.85
2023-04-12T06:35:34.163Z,22.85
2023-04-12T06:38:02.069Z,22.85
2023-04-12T06:40:36.589Z,22.86
2023-04-12T06:43:05.145Z,22.84
2023-04-12T06:45:32.664Z,22.85
2023-04-12T06:47:59.243Z,22.85
2023-04-12T06:50:26.721Z,22.85
2023-04-12T06:52:53.683Z,22.85
2023-04-12T06:55:21.474Z,22.85
2023-04-12T06:57:49.068Z,22.85
2023-04-12T07:00:18.665Z,22.85
2023-04-12T07:02:45.546Z,22.85
2023-04-12T07:05:12.295Z,22.85
2023-04-12T07:07:38.827Z,22.85
2023-04-12T07:10:06.079Z,22.86
2023-04-12T07:12:32.551Z,22.83
2023-04-12T07:14:59.158Z,22.83
2023-04-12T07:17:27.119Z,22.84
2023-04-12T07:19:54.525Z,22.84
2023-04-12T07:22:21.400Z,22.83
2023-04-12T07:24:49.443Z,22.83
2023-04-12T07:27:16.113Z,22.83
2023-04-12T07:29:42.987Z,22.82
2023-04-12T07:32:10.804Z,22.83
2023-04-12T07:34:39.376Z,22.83
2023-04-12T07:37:06.237Z,22.81
2023-04-12T07:39:34.977Z,22.83
2023-04-12T07:42:01.628Z,22.83
2023-04-12T07:44:28.212Z,22.81
2023-04-12T07:46:54.749Z,22.82
2023-04-12T07:49:21.410Z,22.81
2023-04-12T07:51:47.893Z,22.82
2023-04-12T07:54:14.324Z,22.81
2023-04-12T07:56:40.934Z,22.81
2023-04-12T07:59:07.615Z,22.82
2023-04-12T08:01:34.072Z,22.82
2023-04-12T08:04:01.189Z,22.82
2023-04-12T08:06:30.557Z,22.83
2023-04-12T08:08:58.289Z,22.82
2023-04-12T08:11:24.831Z,22.83
2023-04-12T08:13:51.454Z,22.81
2023-04-12T08:16:17.976Z,22.82
2023-04-12T08:18:44.511Z,22.82
2023-04-12T08:21:11.629Z,22.82
2023-04-12T08:23:38.254Z,22.82
2023-04-12T08:26:05.038Z,22.82
2023-04-12T08:28:31.829Z,22.82
2023-04-12T08:30:59.357Z,22.82
2023-04-12T08:33:26.711Z,22.83
2023-04-12T08:35:53.261Z,22.83
2023-04-12T08:38:25.440Z,22.83
2023-04-12T08:40:57.903Z,22.82
2023-04-12T08:43:28.599Z,22.83
2023-04-12T08:45:56.429Z,22.83
2023-04-12T08:48:23.676Z,22.83
2023-04-12T08:50:51.918Z,22.83
2023-04-12T08:53:18.395Z,22.83
2023-04-12T08:55:45.871Z,22.83
2023-04-12T08:58:15.402Z,22.85
2023-04-12T09:00:42.738Z,22.84
2023-04-12T09:03:11.102Z,22.85
2023-04-12T09:05:37.773Z,22.84
2023-04-12T09:08:04.646Z,22.85
2023-04-12T09:10:33.815Z,22.85
2023-04-12T09:13:01.219Z,22.85
2023-04-12T09:15:27.748Z,22.84
2023-04-12T09:18:06.218Z,22.86
2023-04-12T09:20:32.880Z,22.83
2023-04-12T09:22:59.483Z,22.85
2023-04-12T09:25:40.157Z,22.85
2023-04-12T09:28:27.294Z,22.86
2023-04-12T09:30:54.975Z,22.85
2023-04-12T09:33:23.629Z,22.84
2023-04-12T09:35:50.885Z,22.85
2023-04-12T09:38:17.737Z,22.86
2023-04-12T09:40:44.359Z,22.86
2023-04-12T09:43:11.845Z,22.87
2023-04-12T09:45:41.269Z,22.86
2023-04-12T09:48:08.112Z,22.87
2023-04-12T09:50:35.103Z,22.87
2023-04-12T09:53:03.514Z,22.88
2023-04-12T09:55:32.403Z,22.88
2023-04-12T09:58:03.869Z,22.88
2023-04-12T10:00:34.192Z,22.87
2023-04-12T10:03:01.823Z,22.89
2023-04-12T10:05:29.254Z,22.90
2023-04-12T10:07:59.412Z,22.91
2023-04-12T10:10:30.460Z,22.90
2023-04-12T10:12:58.037Z,22.90
2023-04-12T10:15:25.555Z,22.91
2023-04-12T10:17:58.046Z,22.90
2023-04-12T10:20:28.902Z,22.91
2023-04-12T10:22:57.730Z,22.91
2023-04-12T10:25:27.172Z,22.92
2023-04-12T10:27:53.760Z,22.92
2023-04-12T10:30:25.908Z,22.92
2023-04-12T10:33:05.107Z,22.93
2023-04-12T10:36:00.407Z,22.92
2023-04-12T10:38:34.583Z,22.91
2023-04-12T10:41:15.582Z,22.90
2023-04-12T10:43:43.929Z,22.91
2023-04-12T10:46:38.683Z,22.90
2023-04-12T10:49:10.305Z,22.90
2023-04-12T10:51:37.294Z,22.90
2023-04-12T10:54:19.241Z,22.91
2023-04-12T10:56:47.389Z,22.90
2023-04-12T10:59:34.294Z,22.90
2023-04-12T11:02:07.211Z,22.91
2023-04-12T11:04:35.077Z,22.90
2023-04-12T11:07:11.229Z,22.92
2023-04-12T11:10:01.810Z,22.90
2023-04-12T11:12:38.580Z,22.90
2023-04-12T11:15:06.787Z,22.90
2023-04-12T11:17:53.951Z,22.91
2023-04-12T11:20:20.929Z,22.90
2023-04-12T11:22:49.883Z,22.91
2023-04-12T11:25:20.436Z,22.91
2023-04-12T11:27:51.733Z,22.91
2023-04-12T11:30:19.714Z,22.91
2023-04-12T11:32:47.518Z,22.91
2023-04-12T11:35:20.268Z,22.90
2023-04-12T11:37:47.095Z,22.90
2023-04-12T11:40:14.698Z,22.90
2023-04-12T11:42:41.586Z,22.89
2023-04-12T11:45:18.104Z,22.89
2023-04-12T11:47:45.998Z,22.89
2023-04-12T11:50:13.043Z,22.87
2023-04-12T11:52:41.199Z,22.87
2023-04-12T11:55:10.938Z,22.88
2023-04-12T11:57:39.056Z,22.87
2023-04-12T12:00:06.921Z,22.86
2023-04-12T12:02:46.506Z,22.86
2023-04-12T12:05:20.478Z,22.85
2023-04-12T12:07:47.181Z,22.85
2023-04-12T12:10:23.920Z,22.85
2023-04-12T12:13:00.586Z,22.84
2023-04-12T12:15:31.440Z,22.85
2023-04-12T12:17:58.336Z,22.84
2023-04-12T12:20:25.316Z,22.85
2023-04-12T12:22:51.850Z,22.84
2023-04-12T12:25:19.200Z,22.85
2023-04-12T12:27:48.644Z,22.85
2023-04-12T12:30:21.572Z,22.86
2023-04-12T12:32:50.463Z,22.86
2023-04-12T12:35:17.039Z,22.85
2023-04-12T12:37:52.322Z,22.86
2023-04-12T12:40:21.570Z,22.85
2023-04-12T12:42:51.961Z,22.86
2023-04-12T12:45:23.107Z,22.86
2023-04-12T12:47:53.855Z,22.86
2023-04-12T12:50:25.069Z,22.85
2023-04-12T12:52:53.186Z,22.85
2023-04-12T12:55:21.333Z,22.84
2023-04-12T12:58:02.113Z,22.84
2023-04-12T13:00:33.034Z,22.83
2023-04-12T13:02:59.925Z,22.82
2023-04-12T13:05:26.872Z,22.83
2023-04-12T13:07:53.329Z,22.82
2023-04-12T13:10:20.181Z,22.83
2023-04-12T13:12:46.683Z,22.83
2023-04-12T13:15:22.358Z,22.82
2023-04-12T13:17:52.261Z,22.83
2023-04-12T13:20:19.093Z,22.81
2023-04-12T13:22:45.592Z,22.81
2023-04-12T13:25:12.149Z,22.81
2023-04-12T13:27:38.766Z,22.83
2023-04-12T13:30:06.215Z,22.83
2023-04-12T13:32:32.880Z,22.83
2023-04-12T13:34:59.436Z,22.81
2023-04-12T13:37:25.980Z,22.83
2023-04-12T13:39:52.832Z,22.82
2023-04-12T13:42:19.395Z,22.81
2023-04-12T13:44:46.116Z,22.81
2023-04-12T13:47:12.687Z,22.81
2023-04-12T13:49:39.143Z,22.82
2023-04-12T13:52:05.739Z,22.81
2023-04-12T13:54:32.327Z,22.81
2023-04-12T13:56:59.423Z,22.81
2023-04-12T13:59:26.662Z,22.81
2023-04-12T14:01:54.210Z,22.81
2023-04-12T14:04:21.000Z,22.81
2023-04-12T14:06:47.647Z,22.81
2023-04-12T14:09:27.851Z,22.82
2023-04-12T14:11:56.382Z,22.80
2023-04-12T14:14:26.026Z,22.79
2023-04-12T14:16:56.945Z,22.80
2023-04-12T14:19:24.581Z,22.80
2023-04-12T14:21:51.836Z,22.80
2023-04-12T14:24:19.738Z,22.80
2023-04-12T14:26:46.600Z,22.80
2023-04-12T14:29:13.585Z,22.81
2023-04-12T14:31:40.578Z,22.80
2023-04-12T14:34:08.910Z,22.80
2023-04-12T14:36:35.441Z,22.81
2023-04-12T14:39:03.960Z,22.80
2023-04-12T14:41:31.633Z,22.81
2023-04-12T14:43:59.992Z,22.82
2023-04-12T14:46:28.263Z,22.83
2023-04-12T14:48:57.236Z,22.82
2023-04-12T14:51:24.102Z,22.82
2023-04-12T14:53:50.630Z,22.81
2023-04-12T14:56:22.328Z,22.81
2023-04-12T14:58:55.290Z,22.82
2023-04-12T15:01:23.546Z,22.79
2023-04-12T15:03:51.939Z,22.79
2023-04-12T15:06:19.338Z,22.78
2023-04-12T15:08:46.672Z,22.78
2023-04-12T15:11:13.394Z,22.78
2023-04-12T15:13:41.169Z,22.78
2023-04-12T15:16:09.218Z,22.78
2023-04-12T15:18:38.102Z,22.79
2023-04-12T15:21:12.746Z,22.77
2023-04-12T15:23:41.415Z,22.78
2023-04-12T15:26:09.258Z,22.76
2023-04-12T15:28:36.238Z,22.76
2023-04-12T15:31:02.873Z,22.77
2023-04-12T15:33:30.227Z,22.76
2023-04-12T15:35:56.771Z,22.75
2023-04-12T15:38:24.784Z,22.78
2023-04-12T15:41:00.208Z,22.77
2023-04-12T15:43:28.047Z,22.77
2023-04-12T15:45:54.904Z,22.75
2023-04-12T15:48:22.969Z,22.76
2023-04-12T15:50:55.765Z,22.76
2023-04-12T15:53:27.388Z,22.77
2023-04-12T15:55:57.662Z,22.77
2023-04-12T15:58:24.914Z,22.78
2023-04-12T16:00:53.828Z,22.77
2023-04-12T16:03:23.214Z,22.77
2023-04-12T16:05:53.396Z,22.78
2023-04-12T16:08:23.277Z,22.79
2023-04-12T16:10:50.852Z,22.78
2023-04-12T16:13:18.236Z,22.79
2023-04-12T16:15:45.258Z,22.80
2023-04-12T16:18:12.051Z,22.81
2023-04-12T16:20:40.666Z,22.83
2023-04-12T16:23:07.726Z,22.85
2023-04-12T16:25:36.130Z,22.86
2023-04-12T16:28:03.215Z,22.88
2023-04-12T16:30:32.053Z,22.88
2023-04-12T16:32:58.665Z,22.89
2023-04-12T16:35:25.378Z,22.92
2023-04-12T16:37:52.274Z,22.93
2023-04-12T16:40:19.036Z,22.94
2023-04-12T16:42:45.839Z,22.95
2023-04-12T16:45:14.825Z,22.96
2023-04-12T16:47:41.900Z,22.96
2023-04-12T16:50:09.331Z,22.96
2023-04-12T16:52:36.843Z,22.97
2023-04-12T16:55:04.176Z,22.97
2023-04-12T16:57:31.139Z,22.98
2023-04-12T16:59:57.661Z,22.99
2023-04-12T17:02:25.050Z,23.00
2023-04-12T17:04:51.882Z,23.00
2023-04-12T17:07:19.087Z,23.02
2023-04-12T17:09:46.780Z,23.03
2023-04-12T17:12:13.316Z,23.04
2023-04-12T17:14:39.845Z,23.05
2023-04-12T17:17:06.756Z,23.06
2023-04-12T17:19:33.758Z,23.06
2023-04-12T17:22:00.546Z,23.07
2023-04-12T17:24:27.030Z,23.07
2023-04-12T17:26:53.873Z,23.09
2023-04-12T17:29:20.505Z,23.10
2023-04-12T17:31:50.589Z,23.10
2023-04-12T17:34:19.474Z,23.11
2023-04-12T17:36:46.003Z,23.13
2023-04-12T17:39:12.511Z,23.14
2023-04-12T17:41:39.377Z,23.16
2023-04-12T17:44:06.717Z,23.19
2023-04-12T17:46:35.000Z,23.20
2023-04-12T17:49:04.084Z,23.21
2023-04-12T17:51:32.158Z,23.24
2023-04-12T17:54:00.376Z,23.24
2023-04-12T17:56:27.043Z,23.25
2023-04-12T17:58:54.711Z,23.26
2023-04-12T18:01:21.220Z,23.25
2023-04-12T18:03:48.409Z,23.27
2023-04-12T18:06:15.050Z,23.27
2023-04-12T18:08:41.586Z,23.28
2023-04-12T18:11:08.094Z,23.27
2023-04-12T18:13:34.675Z,23.28
2023-04-12T18:16:01.544Z,23.28
2023-04-12T18:18:28.256Z,23.27
2023-04-12T18:20:54.805Z,23.27
2023-04-12T18:23:21.598Z,23.26
2023-04-12T18:25:48.333Z,23.25
2023-04-12T18:28:15.142Z,23.25
2023-04-12T18:30:41.648Z,23.24
2023-04-12T18:33:08.385Z,23.24
2023-04-12T18:35:35.053Z,23.22
2023-04-12T18:38:01.792Z,23.22
2023-04-12T18:40:28.651Z,23.20
2023-04-12T18:42:55.281Z,23.19
2023-04-12T18:45:22.739Z,23.18
2023-04-12T18:47:51.492Z,23.18
2023-04-12T18:50:19.568Z,23.16
2023-04-12T18:52:46.572Z,23.14
2023-04-12T18:55:13.462Z,23.13
2023-04-12T18:57:40.296Z,23.12
2023-04-12T19:00:13.914Z,23.12
2023-04-12T19:02:41.331Z,23.10
2023-04-12T19:05:10.392Z,23.09
2023-04-12T19:07:37.763Z,23.09
2023-04-12T19:10:04.855Z,23.07
2023-04-12T19:12:32.095Z,23.06
2023-04-12T19:14:58.989Z,23.06
2023-04-12T19:17:27.944Z,23.05
2023-04-12T19:19:55.111Z,23.04
2023-04-12T19:22:22.621Z,23.03
2023-04-12T19:24:53.404Z,23.03
2023-04-12T19:27:21.252Z,23.03
2023-04-12T19:29:47.929Z,23.02
2023-04-12T19:32:14.596Z,23.02
2023-04-12T19:34:42.060Z,23.02
2023-04-12T19:37:08.757Z,23.03
2023-04-12T19:39:37.758Z,23.02
2023-04-12T19:42:04.863Z,23.02
2023-04-12T19:44:31.843Z,23.02
2023-04-12T19:46:59.780Z,23.02
2023-04-12T19:49:27.202Z,23.01
2023-04-12T19:51:53.918Z,23.01
2023-04-12T19:54:23.730Z,23.02
2023-04-12T19:56:50.705Z,23.01
2023-04-12T19:59:18.188Z,23.02
2023-04-12T20:01:48.578Z,23.02
2023-04-12T20:04:16.686Z,23.02
2023-04-12T20:06:44.011Z,23.03
2023-04-12T20:09:13.762Z,23.03
2023-04-12T20:11:41.187Z,23.03
2023-04-12T20:14:10.623Z,23.03
2023-04-12T20:16:38.509Z,23.02
2023-04-12T20:19:05.343Z,23.03
2023-04-12T20:21:34.251Z,23.03
2023-04-12T20:24:09.173Z,23.03
2023-04-12T20:26:36.332Z,22.99
2023-04-12T20:29:05.084Z,22.98
2023-04-12T20:31:32.975Z,23.00
2023-04-12T20:34:00.375Z,23.00
2023-04-12T20:36:26.903Z,23.00
2023-04-12T20:38:53.964Z,23.00
2023-04-12T20:41:21.266Z,23.00
2023-04-12T20:43:48.852Z,23.00
2023-04-12T20:46:21.069Z,23.00
2023-04-12T20:48:50.986Z,23.00
2023-04-12T20:51:21.037Z,23.00
2023-04-12T20:53:48.119Z,22.99
2023-04-12T20:56:17.098Z,22.98
2023-04-12T20:58:44.442Z,22.98
2023-04-12T21:01:14.836Z,22.98
2023-04-12T21:03:43.302Z,22.98
2023-04-12T21:06:10.906Z,22.98
2023-04-12T21:08:38.976Z,22.97
2023-04-12T21:11:06.434Z,22.97
2023-04-12T21:13:34.614Z,22.97
2023-04-12T21:16:05.430Z,22.96
2023-04-12T21:18:34.188Z,22.95
2023-04-12T21:21:01.227Z,22.96
2023-04-12T21:23:30.581Z,22.96
2023-04-12T21:25:57.592Z,22.96
2023-04-12T21:28:24.156Z,22.96
2023-04-12T21:30:55.141Z,22.95
2023-04-12T21:33:26.274Z,22.95
2023-04-12T21:35:56.370Z,22.95
2023-04-12T21:38:23.519Z,22.94
2023-04-12T21:40:50.423Z,22.95
2023-04-12T21:43:18.354Z,22.95
2023-04-12T21:45:45.463Z,22.93
2023-04-12T21:48:14.274Z,22.93
2023-04-12T21:50:41.295Z,22.93
2023-04-12T21:53:07.997Z,22.93
2023-04-12T21:55:34.784Z,22.92
2023-04-12T21:58:01.218Z,22.92
2023-04-12T22:00:28.299Z,22.92
2023-04-12T22:02:54.926Z,22.92
2023-04-12T22:05:21.617Z,22.93
2023-04-12T22:07:48.061Z,22.92
2023-04-12T22:10:14.862Z,22.92
2023-04-12T22:12:42.313Z,22.91
2023-04-12T22:15:11.630Z,22.91
2023-04-12T22:17:38.781Z,22.90
2023-04-12T22:20:08.270Z,22.90
2023-04-12T22:22:37.405Z,22.91
2023-04-12T22:25:06.049Z,22.91
2023-04-12T22:27:32.528Z,22.91
2023-04-12T22:30:00.647Z,22.91
2023-04-12T22:32:27.460Z,22.91
2023-04-12T22:35:05.279Z,22.90
2023-04-12T22:37:41.979Z,22.90
2023-04-12T22:40:12.343Z,22.90
2023-04-12T22:42:46.201Z,22.89
2023-04-12T22:45:17.181Z,22.89
2023-04-12T22:47:44.986Z,22.89
2023-04-12T22:50:12.817Z,22.90
2023-04-12T22:52:40.164Z,22.90
2023-04-12T22:55:07.918Z,22.91
2023-04-12T22:57:36.249Z,22.90
2023-04-12T23:00:05.892Z,22.90
2023-04-12T23:02:33.631Z,22.89
2023-04-12T23:05:02.466Z,22.90
2023-04-12T23:07:30.172Z,22.89
2023-04-12T23:09:57.763Z,22.90
2023-04-12T23:12:24.478Z,22.90
2023-04-12T23:14:51.215Z,22.90
2023-04-12T23:17:19.689Z,22.89
2023-04-12T23:19:46.456Z,22.89
2023-04-12T23:22:44.562Z,22.90
2023-04-12T23:25:22.195Z,22.88
2023-04-12T23:27:49.397Z,22.89
2023-04-12T23:30:17.440Z,22.90
2023-04-12T23:32:44.138Z,22.88
2023-04-12T23:35:12.093Z,22.89
2023-04-12T23:37:40.938Z,22.90
2023-04-12T23:40:14.061Z,22.90
2023-04-12T23:42:41.872Z,22.90
2023-04-12T23:45:10.625Z,22.90
2023-04-12T23:47:37.388Z,22.90
2023-04-12T23:50:06.155Z,22.90
2023-04-12T23:52:32.806Z,22.90
2023-04-12T23:54:59.786Z,22.89
2023-04-12T23:57:26.303Z,22.90
2023-04-12T23:59:52.816Z,22.90
